Time,TemperatureF,DewpointF,PressureIn,WindDirection,WindDirectionDegrees,WindSpeedMPH,WindSpeedGustMPH,Humidity,HourlyPrecipIn,Conditions,Clouds,dailyrainin,SoftwareType,DateUTC
2013-03-13 00:06:00,70.0,66.3,29.84,WSW,247,5.3,-999.0,88,-99.99,,,0.00,Acu-Link.com,2013-03-13 04:06:00,
2013-03-13 00:36:00,69.8,66.4,29.85,WSW,247,4.2,-999.0,89,-99.99,,,0.00,Acu-Link.com,2013-03-13 04:36:00,
2013-03-13 00:51:00,69.6,66.2,29.85,WSW,247,6.8,-999.0,89,-99.99,,,0.00,Acu-Link.com,2013-03-13 04:51:00,
2013-03-13 01:06:00,69.3,65.9,29.85,WSW,247,5.8,-999.0,89,-99.99,,,0.00,Acu-Link.com,2013-03-13 05:06:00,
2013-03-13 01:22:00,68.9,65.5,29.85,WSW,247,3.7,-999.0,89,-99.99,,,0.00,Acu-Link.com,2013-03-13 05:22:00,
2013-03-13 01:37:00,68.4,65.0,29.85,West,270,8.9,-999.0,89,-99.99,,,0.00,Acu-Link.com,2013-03-13 05:37:00,
2013-03-13 01:52:00,67.3,64.3,29.85,WNW,292,6.3,-999.0,90,-99.99,,,0.00,Acu-Link.com,2013-03-13 05:52:00,
2013-03-13 02:07:00,66.6,63.3,29.85,NNW,337,8.9,-999.0,89,-99.99,,,0.00,Acu-Link.com,2013-03-13 06:07:00,
2013-03-13 02:52:00,65.7,61.1,29.85,NW,315,3.7,-999.0,85,-99.99,,,0.00,Acu-Link.com,2013-03-13 06:52:00,
2013-03-13 03:07:00,65.1,60.8,29.85,West,270,5.8,-999.0,86,-99.99,,,0.00,Acu-Link.com,2013-03-13 07:07:00,
2013-03-13 03:23:00,64.6,61.0,29.84,WNW,292,4.7,-999.0,88,-99.99,,,0.00,Acu-Link.com,2013-03-13 07:23:00,
2013-03-13 03:38:00,63.5,60.5,29.84,NNW,337,11.9,-999.0,90,-99.99,,,0.00,Acu-Link.com,2013-03-13 07:38:00,
2013-03-13 03:53:00,62.8,59.8,29.84,WNW,292,9.4,-999.0,90,-99.99,,,0.00,Acu-Link.com,2013-03-13 07:53:00,
2013-03-13 04:23:00,60.6,58.0,29.84,NW,315,9.4,-999.0,91,-99.99,,,0.00,Acu-Link.com,2013-03-13 08:23:00,
2013-03-13 04:38:00,59.9,57.3,29.84,West,270,5.8,-999.0,91,-99.99,,,0.00,Acu-Link.com,2013-03-13 08:38:00,
2013-03-13 04:53:00,59.4,57.1,29.83,NW,315,6.8,-999.0,92,-99.99,,,0.00,Acu-Link.com,2013-03-13 08:53:00,
2013-03-13 05:09:00,58.8,56.8,29.84,West,270,3.2,-999.0,93,-99.99,,,0.00,Acu-Link.com,2013-03-13 09:09:00,
2013-03-13 05:24:00,58.3,56.6,29.84,West,270,3.7,-999.0,94,-99.99,,,0.00,Acu-Link.com,2013-03-13 09:24:00,
2013-03-13 05:39:00,57.9,56.5,29.85,WNW,292,4.2,-999.0,95,-99.99,,,0.00,Acu-Link.com,2013-03-13 09:39:00,
2013-03-13 05:54:00,57.4,56.3,29.85,NNW,337,4.2,-999.0,96,-99.99,,,0.00,Acu-Link.com,2013-03-13 09:54:00,
2013-03-13 06:09:00,57.2,56.1,29.86,West,270,4.2,-999.0,96,-99.99,,,0.00,Acu-Link.com,2013-03-13 10:09:00,
2013-03-13 06:24:00,57.2,56.1,29.87,NNE,22,7.3,-999.0,96,-99.99,,,0.00,Acu-Link.com,2013-03-13 10:24:00,
2013-03-13 06:39:00,56.8,55.7,29.87,NNW,337,4.7,-999.0,96,-99.99,,,0.00,Acu-Link.com,2013-03-13 10:39:00,
2013-03-13 06:54:00,56.8,55.7,29.88,ENE,67,3.7,-999.0,96,-99.99,,,0.00,Acu-Link.com,2013-03-13 10:54:00,
2013-03-13 07:10:00,56.8,55.7,29.89,WNW,292,5.8,-999.0,96,-99.99,,,0.00,Acu-Link.com,2013-03-13 11:10:00,
2013-03-13 07:25:00,56.5,55.7,29.90,NW,315,3.7,-999.0,97,-99.99,,,0.00,Acu-Link.com,2013-03-13 11:25:00,
2013-03-13 07:40:00,56.3,55.5,29.89,WNW,292,3.7,-999.0,97,-99.99,,,0.00,Acu-Link.com,2013-03-13 11:40:00,
2013-03-13 07:55:00,56.3,55.5,29.90,NW,315,3.7,-999.0,97,-99.99,,,0.00,Acu-Link.com,2013-03-13 11:55:00,
2013-03-13 08:10:00,56.7,55.3,29.91,WNW,292,8.3,-999.0,95,-99.99,,,0.00,Acu-Link.com,2013-03-13 12:10:00,
2013-03-13 08:25:00,57.0,54.4,29.91,WNW,292,4.2,-999.0,91,-99.99,,,0.00,Acu-Link.com,2013-03-13 12:25:00,
2013-03-13 08:40:00,57.4,54.2,29.92,NW,315,5.8,-999.0,89,-99.99,,,0.00,Acu-Link.com,2013-03-13 12:40:00,
2013-03-13 08:55:00,57.9,54.1,29.93,NW,315,5.8,-999.0,87,-99.99,,,0.00,Acu-Link.com,2013-03-13 12:55:00,
2013-03-13 09:10:00,58.8,54.0,29.93,NNE,22,8.9,-999.0,84,-99.99,,,0.00,Acu-Link.com,2013-03-13 13:10:00,
2013-03-13 09:26:00,59.4,54.2,29.93,West,270,9.4,-999.0,83,-99.99,,,0.00,Acu-Link.com,2013-03-13 13:26:00,
2013-03-13 09:41:00,60.8,54.6,29.93,NE,45,4.7,-999.0,80,-99.99,,,0.00,Acu-Link.com,2013-03-13 13:41:00,
2013-03-13 10:26:00,64.2,55.7,29.95,NW,315,7.8,-999.0,74,-99.99,,,0.00,Acu-Link.com,2013-03-13 14:26:00,
2013-03-13 10:41:00,64.8,56.3,29.95,NNW,337,3.2,-999.0,74,-99.99,,,0.00,Acu-Link.com,2013-03-13 14:41:00,
2013-03-13 11:26:00,66.6,56.9,29.96,NE,45,2.7,-999.0,71,-99.99,,,0.00,Acu-Link.com,2013-03-13 15:26:00,
2013-03-13 11:42:00,68.0,57.0,29.96,NE,45,8.9,-999.0,68,-99.99,,,0.00,Acu-Link.com,2013-03-13 15:42:00,
2013-03-13 11:57:00,69.1,57.7,29.96,North,0,4.2,-999.0,67,-99.99,,,0.00,Acu-Link.com,2013-03-13 15:57:00,
2013-03-13 12:12:00,71.2,57.5,29.96,ENE,67,4.2,-999.0,62,-99.99,,,0.00,Acu-Link.com,2013-03-13 16:12:00,
2013-03-13 12:27:00,71.4,57.7,29.96,NNE,22,9.4,-999.0,62,-99.99,,,0.00,Acu-Link.com,2013-03-13 16:27:00,
2013-03-13 12:42:00,72.5,56.9,29.96,ENE,67,7.8,-999.0,58,-99.99,,,0.00,Acu-Link.com,2013-03-13 16:42:00,
2013-03-13 12:57:00,72.7,56.1,29.95,NNE,22,6.8,-999.0,56,-99.99,,,0.00,Acu-Link.com,2013-03-13 16:57:00,
2013-03-13 13:12:00,72.3,56.7,29.95,WNW,292,12.5,-999.0,58,-99.99,,,0.00,Acu-Link.com,2013-03-13 17:12:00,
2013-03-13 13:28:00,73.4,57.2,29.94,ENE,67,11.9,-999.0,57,-99.99,,,0.00,Acu-Link.com,2013-03-13 17:28:00,
2013-03-13 13:43:00,73.0,55.9,29.95,NW,315,9.4,-999.0,55,-99.99,,,0.00,Acu-Link.com,2013-03-13 17:43:00,
2013-03-13 13:58:00,73.8,56.1,29.94,NNW,337,9.9,-999.0,54,-99.99,,,0.00,Acu-Link.com,2013-03-13 17:58:00,
2013-03-13 14:13:00,73.9,54.6,29.93,NNE,22,5.8,-999.0,51,-99.99,,,0.00,Acu-Link.com,2013-03-13 18:13:00,
2013-03-13 14:28:00,73.4,54.7,29.92,NNE,22,5.3,-999.0,52,-99.99,,,0.00,Acu-Link.com,2013-03-13 18:28:00,
2013-03-13 14:43:00,73.9,53.0,29.92,NNE,22,6.3,-999.0,48,-99.99,,,0.00,Acu-Link.com,2013-03-13 18:43:00,
2013-03-13 14:58:00,74.1,52.6,29.92,NE,45,6.8,-999.0,47,-99.99,,,0.00,Acu-Link.com,2013-03-13 18:58:00,
2013-03-13 15:13:00,75.4,49.4,29.92,NW,315,7.3,-999.0,40,-99.99,,,0.00,Acu-Link.com,2013-03-13 19:13:00,
2013-03-13 15:29:00,74.3,47.7,29.91,NNE,22,8.9,-999.0,39,-99.99,,,0.00,Acu-Link.com,2013-03-13 19:29:00,
2013-03-13 15:44:00,73.9,48.7,29.92,NNE,22,6.8,-999.0,41,-99.99,,,0.00,Acu-Link.com,2013-03-13 19:44:00,
2013-03-13 15:59:00,73.9,50.6,29.91,NNW,337,7.3,-999.0,44,-99.99,,,0.00,Acu-Link.com,2013-03-13 19:59:00,
2013-03-13 16:14:00,74.1,48.9,29.91,North,0,7.3,-999.0,41,-99.99,,,0.00,Acu-Link.com,2013-03-13 20:14:00,
2013-03-13 16:29:00,72.9,50.9,29.90,North,0,7.8,-999.0,46,-99.99,,,0.00,Acu-Link.com,2013-03-13 20:29:00,
2013-03-13 16:44:00,72.1,45.1,29.90,North,0,10.9,-999.0,38,-99.99,,,0.00,Acu-Link.com,2013-03-13 20:44:00,
2013-03-13 16:59:00,72.5,46.1,29.90,NNW,337,9.4,-999.0,39,-99.99,,,0.00,Acu-Link.com,2013-03-13 20:59:00,
2013-03-13 17:14:00,72.1,47.7,29.90,WNW,292,13.0,-999.0,42,-99.99,,,0.00,Acu-Link.com,2013-03-13 21:14:00,
2013-03-13 17:30:00,72.3,47.3,29.91,South,180,4.7,-999.0,41,-99.99,,,0.00,Acu-Link.com,2013-03-13 21:30:00,
2013-03-13 17:45:00,72.3,49.8,29.90,NNE,22,5.8,-999.0,45,-99.99,,,0.00,Acu-Link.com,2013-03-13 21:45:00,
2013-03-13 18:00:00,72.3,49.8,29.90,NE,45,7.3,-999.0,45,-99.99,,,0.00,Acu-Link.com,2013-03-13 22:00:00,
2013-03-13 18:15:00,71.6,45.3,29.90,NE,45,8.3,-999.0,39,-99.99,,,0.00,Acu-Link.com,2013-03-13 22:15:00,
2013-03-13 18:30:00,71.6,43.9,29.91,NNE,22,8.9,-999.0,37,-99.99,,,0.00,Acu-Link.com,2013-03-13 22:30:00,
2013-03-13 18:45:00,71.2,44.3,29.90,NNE,22,8.3,-999.0,38,-99.99,,,0.00,Acu-Link.com,2013-03-13 22:45:00,
2013-03-13 19:00:00,69.4,43.4,29.90,NE,45,3.7,-999.0,39,-99.99,,,0.00,Acu-Link.com,2013-03-13 23:00:00,
2013-03-13 19:16:00,68.2,44.8,29.90,NE,45,6.8,-999.0,43,-99.99,,,0.00,Acu-Link.com,2013-03-13 23:16:00,
2013-03-13 19:31:00,67.3,45.8,29.90,NE,45,6.8,-999.0,46,-99.99,,,0.00,Acu-Link.com,2013-03-13 23:31:00,
2013-03-13 20:16:00,64.9,48.8,29.92,NE,45,2.2,-999.0,56,-99.99,,,0.00,Acu-Link.com,2013-03-14 00:16:00,
2013-03-13 20:46:00,63.5,49.8,29.93,NE,45,2.2,-999.0,61,-99.99,,,0.00,Acu-Link.com,2013-03-14 00:46:00,
2013-03-13 21:01:00,63.1,50.3,29.94,NE,45,3.7,-999.0,63,-99.99,,,0.00,Acu-Link.com,2013-03-14 01:01:00,
2013-03-13 21:16:00,62.6,51.1,29.95,NE,45,1.7,-999.0,66,-99.99,,,0.00,Acu-Link.com,2013-03-14 01:16:00,
2013-03-13 21:32:00,62.1,51.8,29.95,NE,45,2.7,-999.0,69,-99.99,,,0.00,Acu-Link.com,2013-03-14 01:32:00,
2013-03-13 21:47:00,61.5,51.6,29.95,NE,45,2.7,-999.0,70,-99.99,,,0.00,Acu-Link.com,2013-03-14 01:47:00,
2013-03-13 22:02:00,61.3,51.4,29.96,NE,45,2.7,-999.0,70,-99.99,,,0.00,Acu-Link.com,2013-03-14 02:02:00,
2013-03-13 22:17:00,61.2,51.7,29.97,NE,45,2.2,-999.0,71,-99.99,,,0.00,Acu-Link.com,2013-03-14 02:17:00,
2013-03-13 22:47:00,59.9,52.3,29.98,NE,45,1.7,-999.0,76,-99.99,,,0.00,Acu-Link.com,2013-03-14 02:47:00,
2013-03-13 23:02:00,59.5,53.0,29.97,NE,45,1.7,-999.0,79,-99.99,,,0.00,Acu-Link.com,2013-03-14 03:02:00,
2013-03-13 23:17:00,59.2,53.0,29.98,NE,45,1.1,-999.0,80,-99.99,,,0.00,Acu-Link.com,2013-03-14 03:17:00,
2013-03-13 23:32:00,59.2,53.0,29.98,NE,45,0.0,-999.0,80,-99.99,,,0.00,Acu-Link.com,2013-03-14 03:32:00,
2013-03-13 23:48:00,58.5,53.0,29.98,NE,45,0.0,-999.0,82,-99.99,,,0.00,Acu-Link.com,2013-03-14 03:48:00,